Time;durP1;ratioP1;P1;durP2;ratioP2;P2;SDS_P1;SDS_P2;PMS_P1;PMS_P2;Temp;Humidity;BMP_temperature;BMP_pressure;BME280_temperature;BME280_humidity;BME280_pressure;Samples;Min_cycle;Max_cycle;Signal;HPM_P1;HPM_P2
2022/07/02 00:00:43;;;;;;;8.13;7.32;;;;;;;;;;4988103;28;20019;-69
2022/07/02 00:03:11;;;;;;;9.60;6.93;;;;;;;;;;4975996;28;20035;-69
2022/07/02 00:05:39;;;;;;;8.25;6.85;;;;;;;;;;4983587;28;20015;-68
2022/07/02 00:08:05;;;;;;;9.85;6.13;;;;;;;;;;4982918;28;20031;-68
2022/07/02 00:10:32;;;;;;;10.48;5.78;;;;;;;;;;4976158;28;20125;-69
2022/07/02 00:12:58;;;;;;;11.30;5.90;;;;;;;;;;4970325;28;20023;-69
2022/07/02 00:15:24;;;;;;;6.18;5.57;;;;;;;;;;4977738;28;20022;-69
2022/07/02 00:17:50;;;;;;;8.13;6.00;;;;;;;;;;4981239;28;20106;-69
2022/07/02 00:20:16;;;;;;;6.95;5.80;;;;;;;;;;4984646;28;20432;-69
2022/07/02 00:22:43;;;;;;;8.40;6.13;;;;;;;;;;4974805;28;20481;-69
2022/07/02 00:25:09;;;;;;;6.82;6.05;;;;;;;;;;4987268;28;20029;-68
2022/07/02 00:27:37;;;;;;;7.72;5.63;;;;;;;;;;4978956;28;20480;-68
2022/07/02 00:30:04;;;;;;;8.23;5.70;;;;;;;;;;4962488;28;20034;-68
2022/07/02 00:32:34;;;;;;;5.93;5.28;;;;;;;;;;4968786;28;20029;-67
2022/07/02 00:35:05;;;;;;;11.50;5.67;;;;;;;;;;4957151;28;20121;-68
2022/07/02 00:37:31;;;;;;;5.63;4.72;;;;;;;;;;4983748;28;20484;-68
2022/07/02 00:39:57;;;;;;;5.93;5.32;;;;;;;;;;4982268;28;20022;-68
2022/07/02 00:42:24;;;;;;;7.55;5.10;;;;;;;;;;4976942;28;20026;-68
2022/07/02 00:44:51;;;;;;;7.13;4.80;;;;;;;;;;4987356;28;20030;-69
2022/07/02 00:47:19;;;;;;;7.30;4.68;;;;;;;;;;4959109;28;20019;-69
2022/07/02 00:49:45;;;;;;;6.22;4.82;;;;;;;;;;4982365;28;20031;-69
2022/07/02 00:52:11;;;;;;;7.18;4.65;;;;;;;;;;4983802;28;20052;-68
2022/07/02 00:54:38;;;;;;;7.70;4.85;;;;;;;;;;4974909;28;20504;-68
2022/07/02 00:57:04;;;;;;;5.47;4.47;;;;;;;;;;4969660;28;20054;-68
2022/07/02 00:59:30;;;;;;;4.82;4.32;;;;;;;;;;4978063;28;20054;-68
2022/07/02 01:01:57;;;;;;;5.25;4.78;;;;;;;;;;4980426;28;20031;-67
2022/07/02 01:04:23;;;;;;;6.30;4.65;;;;;;;;;;4985332;28;20023;-68
2022/07/02 01:06:50;;;;;;;6.78;4.88;;;;;;;;;;4974263;28;20061;-68
2022/07/02 01:12:03;;;;;;;10.38;4.88;;;;;;;;;;4982104;28;20041;-67
2022/07/02 01:14:29;;;;;;;6.15;4.47;;;;;;;;;;4976154;28;20419;-68
2022/07/02 01:16:56;;;;;;;5.18;4.60;;;;;;;;;;4986910;28;20027;-68
2022/07/02 01:19:23;;;;;;;17.10;5.43;;;;;;;;;;4976474;28;20034;-69
2022/07/02 01:22:07;;;;;;;6.95;4.25;;;;;;;;;;4980997;28;20497;-68
2022/07/02 01:24:33;;;;;;;9.35;4.13;;;;;;;;;;4986760;28;20037;-67
2022/07/02 01:26:59;;;;;;;8.52;4.00;;;;;;;;;;4973333;28;20168;-66
2022/07/02 01:29:25;;;;;;;7.15;3.75;;;;;;;;;;4984092;28;20030;-69
2022/07/02 01:31:51;;;;;;;6.32;3.63;;;;;;;;;;4974673;28;20508;-68
2022/07/02 01:34:17;;;;;;;5.85;3.70;;;;;;;;;;4983248;28;20030;-69
2022/07/02 01:36:43;;;;;;;3.85;3.38;;;;;;;;;;4973464;28;20027;-69
2022/07/02 01:39:09;;;;;;;5.43;3.83;;;;;;;;;;4984883;28;20054;-70
2022/07/02 01:41:38;;;;;;;6.03;4.45;;;;;;;;;;4976724;28;20019;-70
2022/07/02 01:44:04;;;;;;;6.05;4.35;;;;;;;;;;4978081;28;20529;-69
2022/07/02 01:46:30;;;;;;;4.80;4.28;;;;;;;;;;4985342;28;20110;-67
2022/07/02 01:48:56;;;;;;;5.63;4.55;;;;;;;;;;4972636;28;20511;-68
2022/07/02 01:51:22;;;;;;;10.15;5.72;;;;;;;;;;4983877;28;20066;-69
2022/07/02 01:53:48;;;;;;;8.60;5.30;;;;;;;;;;4979273;28;20040;-69
2022/07/02 01:56:14;;;;;;;8.82;5.82;;;;;;;;;;4976700;28;20484;-69
2022/07/02 01:58:40;;;;;;;6.05;5.00;;;;;;;;;;4967905;28;20514;-66
2022/07/02 02:01:06;;;;;;;5.55;4.53;;;;;;;;;;4973648;28;20019;-68
2022/07/02 02:03:32;;;;;;;8.98;5.90;;;;;;;;;;4982307;28;20019;-69
2022/07/02 02:05:58;;;;;;;5.30;4.35;;;;;;;;;;4980423;28;20054;-69
2022/07/02 02:08:24;;;;;;;5.55;4.35;;;;;;;;;;4974521;28;20064;-67
2022/07/02 02:10:50;;;;;;;6.45;4.22;;;;;;;;;;4985877;28;20041;-67
2022/07/02 02:13:16;;;;;;;6.35;4.10;;;;;;;;;;4974804;28;20030;-68
2022/07/02 02:15:42;;;;;;;9.70;5.03;;;;;;;;;;4980753;28;20027;-67
2022/07/02 02:18:08;;;;;;;8.73;5.28;;;;;;;;;;4980762;28;20103;-68
2022/07/02 02:20:34;;;;;;;5.85;4.40;;;;;;;;;;4973927;28;20023;-68
2022/07/02 02:23:04;;;;;;;5.20;4.43;;;;;;;;;;4985834;28;20023;-67
2022/07/02 02:25:30;;;;;;;6.78;4.40;;;;;;;;;;4976292;28;20159;-69
2022/07/02 02:27:56;;;;;;;6.10;4.40;;;;;;;;;;4977893;28;20027;-68
2022/07/02 02:30:22;;;;;;;7.35;4.32;;;;;;;;;;4960419;28;20023;-68
2022/07/02 02:32:48;;;;;;;9.18;5.15;;;;;;;;;;4983862;28;20111;-69
2022/07/02 02:35:14;;;;;;;5.25;4.50;;;;;;;;;;4984114;28;20046;-68
2022/07/02 02:37:40;;;;;;;6.07;4.43;;;;;;;;;;4959207;28;20018;-69
2022/07/02 02:40:07;;;;;;;9.00;5.03;;;;;;;;;;4977644;28;20101;-69
2022/07/02 02:42:33;;;;;;;5.63;4.30;;;;;;;;;;4985306;28;20095;-69
2022/07/02 02:44:59;;;;;;;7.95;5.25;;;;;;;;;;4972816;28;20081;-65
2022/07/02 02:47:25;;;;;;;7.22;4.72;;;;;;;;;;4966253;28;20117;-69
2022/07/02 02:49:51;;;;;;;5.10;4.60;;;;;;;;;;4978974;28;20103;-67
2022/07/02 02:52:17;;;;;;;9.90;5.93;;;;;;;;;;4982392;28;20030;-68
2022/07/02 02:54:43;;;;;;;6.35;4.22;;;;;;;;;;4972523;28;20023;-69
2022/07/02 02:57:09;;;;;;;4.47;3.67;;;;;;;;;;4982686;28;20031;-66
2022/07/02 02:59:35;;;;;;;4.60;4.15;;;;;;;;;;4976830;28;20084;-68
2022/07/02 03:02:01;;;;;;;6.97;3.97;;;;;;;;;;4977960;28;20031;-67
2022/07/02 03:04:27;;;;;;;4.38;2.83;;;;;;;;;;4983630;28;20443;-68
2022/07/02 03:06:53;;;;;;;6.65;3.50;;;;;;;;;;4972562;28;20015;-68
2022/07/02 03:09:19;;;;;;;4.47;3.47;;;;;;;;;;4964983;28;20407;-69
2022/07/02 03:11:45;;;;;;;4.28;3.17;;;;;;;;;;4977876;28;20068;-69
2022/07/02 03:14:11;;;;;;;5.65;3.63;;;;;;;;;;4976198;28;20051;-69
2022/07/02 03:16:37;;;;;;;3.63;3.08;;;;;;;;;;4984772;28;20034;-67
2022/07/02 03:19:03;;;;;;;6.95;3.38;;;;;;;;;;4971441;28;20018;-67
2022/07/02 03:21:29;;;;;;;2.83;2.60;;;;;;;;;;4982368;28;20062;-68
2022/07/02 03:23:55;;;;;;;5.50;3.10;;;;;;;;;;4978977;28;20072;-68
2022/07/02 03:26:21;;;;;;;7.60;3.58;;;;;;;;;;4974980;28;20554;-67
2022/07/02 03:28:47;;;;;;;8.02;3.10;;;;;;;;;;4984149;28;20027;-66
2022/07/02 03:31:13;;;;;;;4.68;3.33;;;;;;;;;;4973499;28;20030;-67
2022/07/02 03:33:39;;;;;;;3.50;3.20;;;;;;;;;;4980236;28;20381;-67
2022/07/02 03:36:05;;;;;;;6.20;2.60;;;;;;;;;;4980168;28;20046;-67
2022/07/02 03:38:31;;;;;;;4.43;2.40;;;;;;;;;;4972465;28;20031;-67
2022/07/02 03:40:57;;;;;;;9.90;2.38;;;;;;;;;;4985114;28;20080;-67
2022/07/02 03:43:23;;;;;;;4.15;2.45;;;;;;;;;;4957810;28;20042;-68
2022/07/02 03:45:49;;;;;;;2.08;1.88;;;;;;;;;;4978693;28;20026;-68
2022/07/02 03:48:15;;;;;;;2.20;1.80;;;;;;;;;;4981029;28;20542;-68
2022/07/02 03:50:42;;;;;;;3.03;1.70;;;;;;;;;;4974907;28;20031;-68
2022/07/02 03:53:09;;;;;;;2.55;1.65;;;;;;;;;;4987628;28;20031;-70
2022/07/02 03:55:35;;;;;;;4.75;1.88;;;;;;;;;;4979588;28;20098;-68
2022/07/02 03:58:01;;;;;;;4.00;1.85;;;;;;;;;;4977764;28;20114;-69
2022/07/02 04:00:27;;;;;;;3.22;1.77;;;;;;;;;;4985826;28;20026;-69
2022/07/02 04:02:53;;;;;;;2.45;1.48;;;;;;;;;;4974879;28;20041;-68
2022/07/02 04:05:19;;;;;;;2.17;1.55;;;;;;;;;;4986023;28;20019;-68
2022/07/02 04:07:45;;;;;;;7.20;1.80;;;;;;;;;;4979742;28;20019;-69
2022/07/02 04:10:11;;;;;;;2.72;1.35;;;;;;;;;;4961335;28;20032;-68
2022/07/02 04:12:37;;;;;;;3.90;1.20;;;;;;;;;;4987653;28;20084;-68
2022/07/02 04:15:03;;;;;;;3.78;1.48;;;;;;;;;;4975052;28;20014;-70
2022/07/02 04:17:30;;;;;;;3.13;1.45;;;;;;;;;;4983375;28;20098;-68
2022/07/02 04:19:56;;;;;;;4.03;1.70;;;;;;;;;;4981602;28;20080;-69
2022/07/02 04:22:22;;;;;;;2.03;1.55;;;;;;;;;;4977331;28;20111;-70
2022/07/02 04:24:48;;;;;;;4.68;1.60;;;;;;;;;;4987523;28;20480;-68
2022/07/02 04:27:14;;;;;;;5.03;1.60;;;;;;;;;;4975342;28;20045;-71
2022/07/02 04:29:40;;;;;;;3.60;1.65;;;;;;;;;;4965056;28;20077;-68
2022/07/02 04:32:07;;;;;;;2.72;1.92;;;;;;;;;;4975072;28;20105;-69
2022/07/02 04:34:33;;;;;;;2.40;1.77;;;;;;;;;;4975232;28;20023;-68
2022/07/02 04:36:59;;;;;;;4.13;1.80;;;;;;;;;;4987459;28;20065;-69
2022/07/02 04:39:25;;;;;;;2.40;1.90;;;;;;;;;;4977103;28;20053;-69
2022/07/02 04:41:51;;;;;;;4.70;1.60;;;;;;;;;;4980982;28;20019;-68
2022/07/02 04:44:17;;;;;;;3.67;1.63;;;;;;;;;;4967048;28;20464;-69
2022/07/02 04:46:43;;;;;;;3.08;1.40;;;;;;;;;;4974022;28;20027;-69
2022/07/02 04:49:09;;;;;;;2.80;1.90;;;;;;;;;;4985828;28;20464;-69
2022/07/02 04:51:35;;;;;;;4.15;1.40;;;;;;;;;;4978523;28;20025;-69
2022/07/02 04:54:01;;;;;;;2.35;1.60;;;;;;;;;;4979768;28;20027;-70
2022/07/02 04:56:27;;;;;;;5.13;2.33;;;;;;;;;;4985538;28;20113;-70
2022/07/02 04:58:54;;;;;;;3.42;2.10;;;;;;;;;;4971599;28;20023;-70
2022/07/02 05:01:20;;;;;;;5.35;2.65;;;;;;;;;;4983989;28;20053;-69
2022/07/02 05:03:46;;;;;;;2.92;2.20;;;;;;;;;;4979589;28;20074;-68
2022/07/02 05:06:12;;;;;;;3.10;2.03;;;;;;;;;;4978017;28;20130;-69
2022/07/02 05:08:38;;;;;;;2.97;1.98;;;;;;;;;;4986028;28;20281;-68
2022/07/02 05:11:04;;;;;;;2.58;1.83;;;;;;;;;;4973825;28;20438;-68
2022/07/02 05:13:30;;;;;;;2.92;2.22;;;;;;;;;;4983208;28;20031;-69
2022/07/02 05:15:56;;;;;;;3.47;2.67;;;;;;;;;;4980883;28;20033;-68
2022/07/02 05:18:24;;;;;;;4.72;2.60;;;;;;;;;;4975666;28;20034;-68
2022/07/02 05:20:50;;;;;;;6.22;3.03;;;;;;;;;;4983436;28;20046;-69
2022/07/02 05:23:16;;;;;;;5.30;2.90;;;;;;;;;;4985214;28;20096;-70
2022/07/02 05:25:42;;;;;;;3.45;2.63;;;;;;;;;;4978938;28;20473;-70
2022/07/02 05:28:08;;;;;;;5.05;2.75;;;;;;;;;;4977993;28;20031;-69
2022/07/02 05:30:34;;;;;;;6.80;2.45;;;;;;;;;;4979048;28;20499;-70
2022/07/02 05:33:00;;;;;;;5.80;2.20;;;;;;;;;;4986778;28;20117;-69
2022/07/02 05:35:26;;;;;;;2.90;2.22;;;;;;;;;;4992578;23;20119;-69
2022/07/02 05:37:52;;;;;;;3.42;1.90;;;;;;;;;;4979221;28;20026;-70
2022/07/02 05:40:18;;;;;;;4.07;1.88;;;;;;;;;;4959352;28;20449;-70
2022/07/02 05:42:44;;;;;;;2.58;1.35;;;;;;;;;;4986338;28;20030;-69
2022/07/02 05:45:10;;;;;;;2.78;1.58;;;;;;;;;;4973118;28;20069;-70
2022/07/02 05:47:36;;;;;;;3.33;1.20;;;;;;;;;;4981475;28;20037;-69
2022/07/02 05:50:03;;;;;;;5.03;1.38;;;;;;;;;;4981530;28;20026;-70
2022/07/02 05:52:29;;;;;;;3.28;0.95;;;;;;;;;;4957674;28;20061;-69
2022/07/02 05:54:55;;;;;;;2.22;0.85;;;;;;;;;;4986202;28;20433;-70
2022/07/02 05:57:21;;;;;;;3.42;0.80;;;;;;;;;;4974957;28;20058;-69
2022/07/02 05:59:47;;;;;;;2.55;0.90;;;;;;;;;;4980095;28;20117;-69
2022/07/02 06:02:13;;;;;;;2.55;1.08;;;;;;;;;;4982624;28;20572;-69
2022/07/02 06:04:39;;;;;;;1.35;1.00;;;;;;;;;;4973478;28;20023;-68
2022/07/02 06:09:49;;;;;;;1.98;0.82;;;;;;;;;;4978729;28;20060;-69
2022/07/02 06:12:15;;;;;;;3.85;0.98;;;;;;;;;;4979889;28;20019;-69
2022/07/02 06:14:41;;;;;;;1.48;0.70;;;;;;;;;;4979450;28;20141;-69
2022/07/02 06:17:08;;;;;;;1.38;0.70;;;;;;;;;;4967154;28;20592;-68
2022/07/02 06:19:34;;;;;;;4.10;1.50;;;;;;;;;;4959628;28;20121;-70
2022/07/02 06:22:00;;;;;;;5.35;1.13;;;;;;;;;;4977567;28;20497;-70
2022/07/02 06:24:26;;;;;;;3.55;1.30;;;;;;;;;;5001802;28;20054;-69
2022/07/02 06:26:52;;;;;;;2.35;1.50;;;;;;;;;;4980968;28;20445;-67
2022/07/02 06:29:18;;;;;;;2.50;1.67;;;;;;;;;;4981778;28;20030;-70
2022/07/02 06:31:44;;;;;;;4.47;2.10;;;;;;;;;;4980898;28;20026;-69
2022/07/02 06:34:09;;;;;;;3.58;1.88;;;;;;;;;;4978662;28;20054;-70
2022/07/02 06:36:35;;;;;;;7.65;1.80;;;;;;;;;;4964714;28;20046;-71
2022/07/02 06:39:01;;;;;;;3.42;1.90;;;;;;;;;;4984884;28;20081;-69
2022/07/02 06:44:12;;;;;;;5.70;1.60;;;;;;;;;;4975875;28;20071;-71
2022/07/02 06:46:38;;;;;;;4.50;1.67;;;;;;;;;;4985083;28;20022;-71
2022/07/02 06:49:04;;;;;;;3.03;1.50;;;;;;;;;;4972282;28;20053;-71
2022/07/02 06:51:30;;;;;;;5.38;2.25;;;;;;;;;;4982096;28;20100;-71
2022/07/02 06:54:00;;;;;;;4.53;1.55;;;;;;;;;;4978108;28;20087;-70
2022/07/02 06:56:32;;;;;;;4.22;1.23;;;;;;;;;;4974254;28;20022;-70
2022/07/02 06:59:00;;;;;;;4.70;1.60;;;;;;;;;;4984501;28;20031;-76
2022/07/02 07:01:26;;;;;;;12.43;3.72;;;;;;;;;;4974264;28;20030;-75
2022/07/02 07:03:52;;;;;;;3.65;1.52;;;;;;;;;;4970764;28;20358;-72
2022/07/02 07:06:21;;;;;;;2.70;1.08;;;;;;;;;;4981224;28;20107;-70
2022/07/02 07:08:52;;;;;;;2.75;1.00;;;;;;;;;;4972049;28;20027;-71
2022/07/02 07:11:18;;;;;;;3.45;1.33;;;;;;;;;;4958153;28;20480;-71
2022/07/02 07:13:45;;;;;;;1.55;1.05;;;;;;;;;;4981258;28;20148;-71
2022/07/02 07:16:11;;;;;;;13.27;5.05;;;;;;;;;;4958164;28;20488;-72
2022/07/02 07:18:37;;;;;;;19.33;7.03;;;;;;;;;;4982999;28;20033;-72
2022/07/02 07:21:03;;;;;;;7.63;1.83;;;;;;;;;;4972225;28;20098;-72
2022/07/02 07:23:29;;;;;;;6.22;1.92;;;;;;;;;;4982685;28;20106;-72
2022/07/02 07:25:54;;;;;;;4.65;1.10;;;36.00;25.30;;;;;;4963980;28;20386;-72
2022/07/02 07:28:21;;;;;;;2.75;1.40;;;35.40;26.60;;;;;;4978502;28;20027;-72
2022/07/02 07:30:46;;;;;;;2.50;1.35;;;35.50;26.00;;;;;;4953987;28;20027;-72
2022/07/02 07:33:12;;;;;;;4.10;1.55;;;;;;;;;;4971457;28;20066;-71
2022/07/02 07:35:38;;;;;;;2.10;1.30;;;;;;;;;;4972325;28;20035;-71
2022/07/02 07:38:04;;;;;;;5.13;0.98;;;;;;;;;;4970771;28;20076;-72
2022/07/02 07:40:30;;;;;;;1.45;1.33;;;;;;;;;;4954553;28;20571;-72
2022/07/02 07:42:56;;;;;;;6.32;2.03;;;;;;;;;;4972700;28;20053;-71
2022/07/02 07:45:22;;;;;;;4.22;1.38;;;;;;;;;;4972781;28;20023;-71
2022/07/02 07:47:48;;;;;;;1.90;1.35;;;;;;;;;;4972101;28;20475;-71
2022/07/02 07:50:14;;;;;;;6.53;1.48;;;;;;;;;;4955247;28;20106;-72
2022/07/02 07:52:40;;;;;;;7.22;1.67;;;;;;;;;;4953791;28;20105;-71
2022/07/02 07:55:07;;;;;;;4.53;1.50;;;;;;;;;;4972546;28;20035;-71
2022/07/02 07:57:33;;;;;;;3.13;1.55;;;;;;;;;;4971608;28;20026;-72
2022/07/02 07:59:59;;;;;;;2.38;1.10;;;;;;;;;;4972481;28;20026;-72
2022/07/02 08:02:25;;;;;;;2.38;1.15;;;;;;;;;;4972410;28;20045;-71
2022/07/02 08:04:51;;;;;;;3.15;1.35;;;;;;;;;;4972231;28;20019;-71
2022/07/02 08:07:17;;;;;;;2.85;1.00;;;;;;;;;;4954414;28;20469;-71
2022/07/02 08:09:43;;;;;;;1.75;0.85;;;;;;;;;;4972975;28;20027;-76
2022/07/02 08:12:08;;;;;;;2.83;1.40;;;35.30;25.00;;;;;;4973429;28;20026;-73
2022/07/02 08:14:34;;;;;;;3.08;1.10;;;35.90;23.90;;;;;;4973486;28;20485;-73
2022/07/02 08:17:00;;;;;;;4.50;1.70;;;33.30;26.30;;;;;;4972558;28;20037;-74
2022/07/02 08:19:28;;;;;;;4.20;1.55;;;32.80;26.80;;;;;;4972099;28;20145;-74
2022/07/02 08:21:54;;;;;;;3.65;1.70;;;32.70;26.70;;;;;;4972236;28;20065;-74
2022/07/02 08:24:23;;;;;;;3.13;1.45;;;31.70;28.70;;;;;;4972143;28;20031;-75
2022/07/02 08:26:49;;;;;;;4.90;1.85;;;;;;;;;;4971812;28;20027;-73
2022/07/02 08:29:15;;;;;;;3.38;1.38;;;;;;;;;;4971381;28;20022;-75
2022/07/02 08:31:41;;;;;;;2.85;1.05;;;;;;;;;;4971882;28;20408;-74
2022/07/02 08:34:07;;;;;;;57.45;33.75;;;;;;;;;;4954400;28;20114;-74
2022/07/02 08:36:34;;;;;;;1.88;0.85;;;;;;;;;;4970567;28;20077;-74
2022/07/02 08:39:00;;;;;;;2.67;1.33;;;;;;;;;;4971006;28;20087;-74
2022/07/02 08:41:26;;;;;;;3.60;1.25;;;;;;;;;;4954354;28;20067;-74
2022/07/02 08:43:54;;;;;;;3.42;1.00;;;;;;;;;;4971668;28;20050;-74
2022/07/02 08:46:20;;;;;;;3.17;1.27;;;;;;;;;;4971408;28;20058;-74
2022/07/02 08:48:47;;;;;;;2.50;1.48;;;;;;;;;;4970995;28;20030;-74
2022/07/02 08:51:14;;;;;;;26.60;12.48;;;;;;;;;;4971723;28;20397;-74
2022/07/02 08:53:41;;;;;;;2.03;1.40;;;30.50;28.50;;;;;;4952963;28;20436;-74
2022/07/02 08:56:13;;;;;;;3.38;0.95;;;;;;;;;;4971125;28;20496;-74
2022/07/02 08:58:39;;;;;;;42.03;16.33;;;;;;;;;;4970751;28;20035;-74
2022/07/02 09:01:06;;;;;;;3.70;1.08;;;;;;;;;;4971754;28;20072;-73
2022/07/02 09:03:32;;;;;;;2.35;1.30;;;;;;;;;;4971295;28;20019;-73
2022/07/02 09:05:59;;;;;;;2.85;1.17;;;;;;;;;;4971210;28;20033;-74
2022/07/02 09:08:25;;;;;;;1.23;0.88;;;;;;;;;;4970666;28;20408;-74
2022/07/02 09:10:52;;;;;;;5.63;1.45;;;;;;;;;;4971072;28;20072;-74
2022/07/02 09:13:19;;;;;;;3.20;1.13;;;29.50;30.50;;;;;;4971412;28;20217;-73
2022/07/02 09:15:46;;;;;;;2.38;1.33;;;;;;;;;;4971910;28;20108;-74
2022/07/02 09:18:11;;;;;;;2.08;1.27;;;31.00;27.20;;;;;;4953684;28;20038;-75
2022/07/02 09:20:37;;;;;;;2.17;1.15;;;30.90;27.00;;;;;;4971198;28;20396;-75
2022/07/02 09:23:09;;;;;;;2.47;1.20;;;30.40;28.00;;;;;;4971101;28;20027;-75
2022/07/02 09:25:34;;;;;;;4.88;1.15;;;29.70;28.40;;;;;;4971052;28;20019;-73
2022/07/02 09:28:03;;;;;;;4.85;1.60;;;28.70;30.10;;;;;;4970209;28;20106;-73
2022/07/02 09:30:36;;;;;;;3.20;1.25;;;27.70;31.70;;;;;;4971022;28;20400;-74
2022/07/02 09:35:59;;;;;;;3.53;1.15;;;28.70;31.10;;;;;;4979264;28;20035;-74
2022/07/02 09:38:25;;;;;;;3.50;1.25;;;29.90;28.90;;;;;;4970134;28;20366;-73
2022/07/02 09:41:01;;;;;;;1.92;1.00;;;30.10;29.30;;;;;;4970970;28;20030;-73
2022/07/02 09:43:37;;;;;;;3.28;1.45;;;31.20;29.00;;;;;;4970925;28;20031;-74
2022/07/02 09:46:14;;;;;;;4.28;1.20;;;32.40;27.50;;;;;;4970922;28;20027;-74
2022/07/02 09:48:40;;;;;;;4.45;1.40;;;31.90;25.50;;;;;;4969409;28;20388;-74
2022/07/02 09:51:05;;;;;;;2.05;1.20;;;30.90;26.90;;;;;;4970945;28;20035;-74
2022/07/02 09:53:32;;;;;;;2.58;0.98;;;30.20;27.70;;;;;;4969481;28;20053;-73
2022/07/02 09:55:57;;;;;;;2.13;1.25;;;30.00;28.00;;;;;;4953477;28;20027;-73
2022/07/02 09:58:28;;;;;;;7.35;1.30;;;29.50;28.80;;;;;;4970364;28;20031;-73
2022/07/02 10:00:59;;;;;;;3.70;1.27;;;27.50;30.90;;;;;;4971340;28;20098;-74
2022/07/02 10:03:27;;;;;;;2.00;1.10;;;26.00;33.40;;;;;;4970559;28;20122;-74
2022/07/02 10:05:53;;;;;;;3.20;1.30;;;25.70;34.90;;;;;;4970504;28;20027;-73
2022/07/02 10:08:19;;;;;;;9.23;1.65;;;26.40;34.80;;;;;;4969882;28;20030;-74
2022/07/02 10:10:45;;;;;;;3.55;1.05;;;26.40;33.40;;;;;;4970384;28;20031;-73
2022/07/02 10:13:13;;;;;;;2.08;1.05;;;26.30;34.50;;;;;;4970166;28;20512;-73
2022/07/02 10:16:00;;;;;;;2.28;1.17;;;26.90;32.60;;;;;;4970072;28;20081;-73
2022/07/02 10:18:26;;;;;;;3.47;1.20;;;27.50;30.70;;;;;;4969308;28;20038;-73
2022/07/02 10:20:56;;;;;;;8.05;1.65;;;27.90;30.30;;;;;;4970371;28;20392;-74
2022/07/02 10:23:26;;;;;;;11.07;4.00;;;28.10;30.10;;;;;;4970139;28;20022;-74
2022/07/02 10:25:52;;;;;;;4.18;2.15;;;28.50;30.30;;;;;;4970012;28;20258;-74
2022/07/02 10:28:18;;;;;;;3.15;0.85;;;28.90;30.70;;;;;;4969638;28;20027;-74
2022/07/02 10:30:44;;;;;;;2.88;1.27;;;28.50;29.80;;;;;;4970147;28;20027;-74
2022/07/02 10:33:28;;;;;;;5.03;1.25;;;28.30;30.40;;;;;;4970137;28;20107;-74
2022/07/02 10:35:57;;;;;;;2.67;0.90;;;27.10;31.40;;;;;;4969676;28;20051;-73
2022/07/02 10:38:30;;;;;;;3.13;1.30;;;26.50;33.00;;;;;;4969313;28;20034;-73
2022/07/02 10:40:56;;;;;;;4.78;1.30;;;26.40;32.90;;;;;;4937091;28;20026;-74
2022/07/02 10:43:23;;;;;;;2.90;1.13;;;26.20;34.40;;;;;;4970123;28;20029;-74
2022/07/02 10:45:48;;;;;;;2.65;1.08;;;26.70;33.40;;;;;;4970076;28;20027;-73
2022/07/02 10:48:14;;;;;;;3.13;1.10;;;26.70;33.30;;;;;;4969093;28;20023;-73
2022/07/02 10:50:44;;;;;;;3.90;1.17;;;26.90;33.50;;;;;;4969772;28;20105;-73
2022/07/02 10:53:10;;;;;;;3.95;0.95;;;27.10;34.10;;;;;;4968969;28;20035;-74
2022/07/02 10:55:36;;;;;;;5.43;1.00;;;27.40;32.70;;;;;;4969742;28;20038;-73
2022/07/02 10:58:04;;;;;;;5.55;1.45;;;27.40;31.50;;;;;;4969542;28;20389;-73
2022/07/02 11:00:36;;;;;;;3.13;1.27;;;27.50;31.30;;;;;;4972525;28;20446;-73
2022/07/02 11:03:16;;;;;;;1.90;1.00;;;27.60;32.00;;;;;;4955986;28;20245;-73
2022/07/02 11:05:57;;;;;;;4.72;0.82;;;27.90;31.20;;;;;;4973276;28;20027;-74
2022/07/02 11:08:43;;;;;;;2.67;1.27;;;28.10;30.40;;;;;;4972774;28;20173;-73
2022/07/02 11:11:10;;;;;;;2.92;1.35;;;28.10;31.30;;;;;;4973296;28;20031;-74
2022/07/02 11:13:54;;;;;;;2.00;0.98;;;28.10;31.60;;;;;;4973310;28;20106;-73
2022/07/02 11:16:25;;;;;;;2.00;0.80;;;28.20;29.90;;;;;;4972882;28;20031;-75
2022/07/02 11:18:53;;;;;;;1.88;0.95;;;28.40;29.90;;;;;;4972048;28;20052;-74
2022/07/02 11:21:20;;;;;;;1.67;0.70;;;28.40;30.60;;;;;;4973152;28;20380;-74
2022/07/02 11:23:46;;;;;;;5.97;1.35;;;28.50;29.20;;;;;;4972955;28;20468;-73
2022/07/02 11:26:22;;;;;;;1.15;0.73;;;28.20;29.90;;;;;;4972866;28;20023;-74
2022/07/02 11:28:48;;;;;;;0.88;0.70;;;28.10;30.20;;;;;;4972584;28;20038;-74
2022/07/02 11:31:16;;;;;;;2.80;0.82;;;28.10;29.50;;;;;;4972735;28;20027;-73
2022/07/02 11:33:47;;;;;;;4.72;0.95;;;28.00;29.90;;;;;;4971202;28;20019;-73
2022/07/02 11:36:13;;;;;;;2.50;0.77;;;28.00;30.90;;;;;;4993243;23;20050;-76
2022/07/02 11:38:47;;;;;;;4.97;0.90;;;27.90;30.60;;;;;;4955122;28;20027;-73
2022/07/02 11:41:26;;;;;;;1.83;0.80;;;27.90;31.50;;;;;;4973063;28;20042;-73
2022/07/02 11:43:57;;;;;;;3.65;0.93;;;28.30;31.10;;;;;;4972950;28;20027;-74
2022/07/02 11:46:25;;;;;;;3.22;0.95;;;28.30;30.60;;;;;;4973502;28;20030;-74
2022/07/02 11:48:51;;;;;;;2.05;0.90;;;28.40;30.40;;;;;;4951023;28;20042;-75
2022/07/02 11:51:21;;;;;;;2.08;1.38;;;28.20;31.00;;;;;;4958197;29;20102;-75
2022/07/02 11:53:56;;;;;;;3.55;1.02;;;27.90;29.60;;;;;;4954308;29;20038;-73
2022/07/02 11:56:22;;;;;;;287.55;159.93;;;27.20;31.10;;;;;;4936715;29;20106;-74
2022/07/02 11:58:48;;;;;;;1.52;0.90;;;26.90;31.70;;;;;;4954687;29;20027;-74
2022/07/02 12:01:26;;;;;;;1.50;0.85;;;26.90;30.80;;;;;;4937033;29;20027;-74
2022/07/02 12:03:54;;;;;;;5.55;1.15;;;26.50;31.00;;;;;;4955940;28;20023;-73
2022/07/02 12:06:20;;;;;;;2.60;1.10;;;26.40;32.00;;;;;;4955838;28;20473;-74
2022/07/02 12:08:45;;;;;;;4.93;0.95;;;26.70;32.80;;;;;;4936960;29;20051;-74
2022/07/02 12:11:16;;;;;;;1.25;0.80;;;26.60;31.00;;;;;;4954981;28;20027;-75
2022/07/02 12:13:43;;;;;;;5.55;1.50;;;26.40;32.60;;;;;;4953948;28;20031;-75
2022/07/02 12:16:12;;;;;;;22.67;5.93;;;26.50;32.60;;;;;;4955724;28;20035;-75
2022/07/02 12:18:37;;;;;;;2.95;0.73;;;26.70;32.30;;;;;;4954570;28;20097;-75
2022/07/02 12:21:11;;;;;;;1.45;0.70;;;26.50;32.30;;;;;;4954381;28;20024;-75
2022/07/02 12:23:43;;;;;;;3.08;0.60;;;26.60;32.20;;;;;;4954698;29;20085;-74
2022/07/02 12:26:09;;;;;;;3.05;0.90;;;26.80;31.20;;;;;;4952907;29;20094;-75
2022/07/02 12:31:19;;;;;;;1.75;0.95;;;27.00;32.70;;;;;;4952688;29;20420;-74
2022/07/02 12:33:57;;;;;;;2.55;0.80;;;27.50;32.10;;;;;;4952612;29;20024;-74
2022/07/02 12:36:23;;;;;;;2.95;0.95;;;27.60;31.10;;;;;;4952452;29;20096;-74
2022/07/02 12:38:51;;;;;;;2.42;0.95;;;27.00;30.60;;;;;;4951113;29;20350;-75
2022/07/02 12:41:16;;;;;;;2.40;1.00;;;26.80;31.90;;;;;;4952604;29;20031;-74
2022/07/02 12:43:52;;;;;;;4.88;0.80;;;26.90;31.80;;;;;;4952607;29;20096;-73
2022/07/02 12:46:17;;;;;;;0.70;0.70;;;26.80;32.00;;;;;;4952544;29;20042;-74
2022/07/02 12:48:44;;;;;;;3.28;0.90;;;26.60;31.90;;;;;;4934747;29;20370;-73
2022/07/02 12:51:11;;;;;;;3.55;0.68;;;26.70;32.20;;;;;;4952429;29;20031;-74
2022/07/02 12:53:37;;;;;;;2.30;0.82;;;26.80;32.10;;;;;;4950980;28;20032;-74
2022/07/02 12:56:04;;;;;;;16.92;5.57;;;26.90;32.70;;;;;;4952190;28;20031;-72
2022/07/02 12:58:31;;;;;;;5.07;1.63;;;26.90;32.50;;;;;;4934833;29;20559;-75
2022/07/02 13:00:58;;;;;;;12.93;4.70;;;27.00;32.80;;;;;;4951146;28;20043;-74
2022/07/02 13:03:24;;;;;;;2.78;1.10;;;27.10;33.00;;;;;;4952214;29;20030;-73
2022/07/02 13:05:52;;;;;;;3.95;0.98;;;27.10;32.40;;;;;;4951796;28;20038;-74
2022/07/02 13:08:22;;;;;;;1.67;0.80;;;26.90;32.40;;;;;;4952298;28;20027;-74
2022/07/02 13:10:50;;;;;;;1.75;0.90;;;26.90;32.50;;;;;;4952626;29;20405;-74
2022/07/02 13:13:17;;;;;;;2.33;0.90;;;26.90;32.30;;;;;;4952258;28;20071;-74
2022/07/02 13:15:43;;;;;;;1.33;0.57;;;27.00;32.30;;;;;;4952079;28;20444;-74
2022/07/02 13:18:09;;;;;;;1.50;0.82;;;27.00;33.30;;;;;;4959701;29;20032;-75
2022/07/02 13:20:34;;;;;;;2.85;1.00;;;26.90;31.50;;;;;;4955449;29;20073;-74
2022/07/02 13:23:00;;;;;;;3.60;0.98;;;26.70;31.20;;;;;;4951146;28;20098;-73
2022/07/02 13:25:26;;;;;;;4.07;1.00;;;26.30;31.90;;;;;;4951963;29;20031;-73
2022/07/02 13:27:52;;;;;;;9.02;0.80;;;26.20;32.10;;;;;;4951548;29;20118;-74
2022/07/02 13:30:19;;;;;;;2.80;0.95;;;26.00;32.60;;;;;;4950389;29;20455;-74
2022/07/02 13:32:48;;;;;;;1.80;0.70;;;25.70;32.60;;;;;;4951739;29;20437;-74
2022/07/02 13:35:14;;;;;;;2.65;1.13;;;25.10;33.20;;;;;;4935264;29;20055;-74
2022/07/02 13:37:41;;;;;;;2.13;0.98;;;25.10;33.60;;;;;;4954320;28;20089;-74
2022/07/02 13:40:09;;;;;;;2.83;0.90;;;25.20;34.10;;;;;;4955037;28;20045;-74
2022/07/02 13:42:35;;;;;;;3.78;0.82;;;25.20;33.50;;;;;;4953116;29;20027;-73
2022/07/02 13:45:02;;;;;;;2.97;0.80;;;25.40;33.30;;;;;;4951535;28;20039;-74
2022/07/02 13:47:27;;;;;;;1.70;0.80;;;25.50;33.40;;;;;;4951513;28;20031;-74
2022/07/02 13:49:53;;;;;;;17.27;1.70;;;25.90;33.50;;;;;;4951397;29;20031;-74
2022/07/02 13:52:18;;;;;;;1.20;0.70;;;25.80;32.60;;;;;;4951252;28;20106;-73
2022/07/02 13:54:47;;;;;;;4.72;0.90;;;25.80;32.90;;;;;;4951229;29;20051;-74
2022/07/02 13:57:13;;;;;;;2.88;0.80;;;25.90;32.70;;;;;;4951056;29;20496;-74
2022/07/02 13:59:38;;;;;;;2.35;0.60;;;26.00;32.60;;;;;;4951399;29;20023;-75
2022/07/02 14:02:04;;;;;;;2.88;1.10;;;26.00;32.70;;;;;;4934204;29;20024;-75
2022/07/02 14:04:30;;;;;;;2.22;0.70;;;26.10;32.80;;;;;;4951479;29;20102;-75
2022/07/02 14:06:56;;;;;;;1.42;0.55;;;25.90;32.10;;;;;;4949903;28;20496;-74